createdAt,value
2022-08-08T00:00:53.738Z,5.65
2022-08-08T00:08:33.425Z,6.38
2022-08-08T00:16:12.495Z,7.40
2022-08-08T00:23:52.684Z,7.90
2022-08-08T00:32:20.427Z,7.53
2022-08-08T00:41:07.609Z,7.97
2022-08-08T00:48:29.086Z,7.60
2022-08-08T00:56:46.273Z,7.60
2022-08-08T01:04:50.814Z,8.90
2022-08-08T01:13:15.140Z,9.13
2022-08-08T01:21:07.307Z,9.10
2022-08-08T01:29:35.578Z,9.75
2022-08-08T01:37:59.994Z,11.10
2022-08-08T01:45:58.343Z,11.82
2022-08-08T01:55:17.134Z,13.38
2022-08-08T02:02:04.971Z,13.45
2022-08-08T02:10:11.693Z,14.13
2022-08-08T02:17:57.594Z,15.38
2022-08-08T02:25:46.856Z,14.43
2022-08-08T02:34:00.243Z,15.45
2022-08-08T02:42:07.854Z,14.38
2022-08-08T02:50:18.204Z,15.63
2022-08-08T02:58:42.274Z,16.38
2022-08-08T03:07:02.420Z,15.05
2022-08-08T03:15:57.395Z,13.85
2022-08-08T03:23:00.616Z,13.90
2022-08-08T03:30:38.361Z,15.70
2022-08-08T03:38:57.942Z,13.15
2022-08-08T03:46:09.701Z,11.43
2022-08-08T03:53:47.739Z,13.30
2022-08-08T04:01:24.515Z,14.65
2022-08-08T04:09:10.595Z,14.50
2022-08-08T04:16:49.184Z,13.38
2022-08-08T04:24:29.642Z,14.25
2022-08-08T04:32:06.826Z,12.77
2022-08-08T04:40:05.418Z,12.88
2022-08-08T04:47:46.121Z,13.00
2022-08-08T04:55:22.129Z,15.15
2022-08-08T05:02:56.828Z,12.63
2022-08-08T05:10:32.951Z,13.00
2022-08-08T05:18:07.105Z,10.88
2022-08-08T05:25:43.234Z,7.07
2022-08-08T05:33:17.837Z,4.57
2022-08-08T05:40:58.174Z,3.70
2022-08-08T05:48:34.633Z,3.85
2022-08-08T05:56:15.218Z,3.58
2022-08-08T06:03:53.673Z,3.50
2022-08-08T06:11:33.212Z,3.10
2022-08-08T06:19:16.197Z,3.22
2022-08-08T06:26:58.963Z,3.38
2022-08-08T06:34:40.273Z,3.60
2022-08-08T06:42:16.474Z,2.85
2022-08-08T06:49:56.667Z,2.45
2022-08-08T06:57:54.722Z,2.85
2022-08-08T07:05:29.857Z,3.23
2022-08-08T07:13:18.725Z,3.53
2022-08-08T07:20:56.004Z,2.78
2022-08-08T07:28:34.283Z,2.70
2022-08-08T07:36:10.499Z,2.85
2022-08-08T07:43:53.496Z,3.17
2022-08-08T07:51:53.258Z,2.90
2022-08-08T07:59:27.942Z,2.97
2022-08-08T08:07:12.545Z,2.53
2022-08-08T08:14:55.739Z,2.95
2022-08-08T08:22:31.336Z,2.55
2022-08-08T08:30:10.369Z,3.60
2022-08-08T08:38:13.000Z,2.28
2022-08-08T08:45:40.679Z,1.73
2022-08-08T08:53:54.991Z,2.00
2022-08-08T09:01:14.934Z,2.20
2022-08-08T09:08:55.186Z,2.63
2022-08-08T09:16:32.842Z,2.03
2022-08-08T09:24:07.313Z,2.25
2022-08-08T09:31:56.035Z,2.30
2022-08-08T09:39:36.775Z,2.67
2022-08-08T09:47:26.501Z,2.10
2022-08-08T09:55:09.470Z,2.30
2022-08-08T10:02:54.145Z,1.83
2022-08-08T10:10:30.302Z,2.50
2022-08-08T10:18:13.096Z,2.30
2022-08-08T10:25:57.201Z,2.97
2022-08-08T10:33:38.593Z,2.83
2022-08-08T10:41:35.419Z,2.25
2022-08-08T10:50:02.278Z,2.50
2022-08-08T10:57:27.558Z,2.03
2022-08-08T11:05:18.116Z,2.15
2022-08-08T11:13:18.703Z,3.00
2022-08-08T11:20:52.228Z,1.90
2022-08-08T11:28:29.569Z,2.22
2022-08-08T11:36:07.059Z,2.50
2022-08-08T11:43:43.529Z,2.60
2022-08-08T11:51:37.959Z,2.47
2022-08-08T11:59:14.381Z,2.13
2022-08-08T12:06:49.658Z,2.63
2022-08-08T12:14:24.122Z,2.33
2022-08-08T12:22:13.504Z,2.53
2022-08-08T12:30:02.053Z,2.65
2022-08-08T12:37:40.802Z,2.85
2022-08-08T12:45:58.543Z,2.60
2022-08-08T12:53:24.685Z,2.42
2022-08-08T13:01:11.055Z,2.30
2022-08-08T13:08:53.155Z,1.88
2022-08-08T13:16:30.005Z,2.08
2022-08-08T13:24:07.925Z,2.15
2022-08-08T13:31:53.401Z,2.35
2022-08-08T13:39:28.651Z,2.25
2022-08-08T13:47:05.016Z,2.28
2022-08-08T13:54:49.434Z,1.83
2022-08-08T14:02:30.955Z,2.25
2022-08-08T14:10:11.773Z,2.45
2022-08-08T14:17:58.489Z,2.22
2022-08-08T14:25:46.735Z,2.25
2022-08-08T14:33:36.578Z,2.00
2022-08-08T14:41:17.718Z,2.05
2022-08-08T14:49:31.881Z,2.22
2022-08-08T14:57:08.858Z,2.10
2022-08-08T15:04:45.593Z,2.15
2022-08-08T15:12:36.572Z,2.50
2022-08-08T15:20:14.162Z,2.03
2022-08-08T15:28:05.184Z,2.25
2022-08-08T15:35:43.395Z,4.43
2022-08-08T15:43:35.728Z,4.63
2022-08-08T15:51:11.646Z,2.85
2022-08-08T15:58:50.704Z,2.15
2022-08-08T16:06:28.774Z,2.50
2022-08-08T16:14:11.388Z,1.75
2022-08-08T16:21:54.076Z,2.10
2022-08-08T16:29:37.352Z,2.28
2022-08-08T16:37:27.859Z,1.92
2022-08-08T16:45:11.461Z,1.92
2022-08-08T17:00:52.941Z,2.03
2022-08-08T17:08:27.171Z,2.00
2022-08-08T17:16:02.356Z,2.10
2022-08-08T17:24:01.437Z,1.77
2022-08-08T17:31:45.142Z,2.83
2022-08-08T17:39:46.056Z,3.35
2022-08-08T17:47:23.172Z,5.13
2022-08-08T17:54:58.654Z,3.90
2022-08-08T18:02:33.974Z,3.00
2022-08-08T18:10:10.218Z,2.30
2022-08-08T18:25:39.684Z,2.55
2022-08-08T18:33:36.620Z,2.58
2022-08-08T18:41:10.143Z,2.63
2022-08-08T18:48:45.508Z,2.10
2022-08-08T18:56:22.992Z,2.38
2022-08-08T19:04:09.908Z,2.88
2022-08-08T19:11:46.243Z,3.08
2022-08-08T19:19:22.134Z,2.58
2022-08-08T19:26:57.889Z,2.53
2022-08-08T19:34:38.767Z,2.40
2022-08-08T19:42:15.467Z,2.85
2022-08-08T19:49:59.734Z,2.78
2022-08-08T20:05:12.113Z,2.78
2022-08-08T20:12:59.140Z,3.53
2022-08-08T20:20:42.490Z,2.83
2022-08-08T20:28:17.486Z,2.38
2022-08-08T20:35:58.585Z,2.88
2022-08-08T20:43:43.629Z,2.83
2022-08-08T20:51:23.640Z,3.03
2022-08-08T20:58:58.989Z,3.67
2022-08-08T21:06:52.714Z,3.63
2022-08-08T21:14:33.499Z,3.38
2022-08-08T21:22:09.658Z,3.25
2022-08-08T21:30:03.698Z,3.25
2022-08-08T21:37:54.329Z,3.42
2022-08-08T21:47:59.658Z,3.40
2022-08-08T21:54:32.000Z,3.22
2022-08-08T22:01:22.446Z,3.67
2022-08-08T22:09:08.409Z,3.10
2022-08-08T22:16:42.732Z,2.80
2022-08-08T22:24:18.016Z,3.38
2022-08-08T22:32:03.513Z,2.97
2022-08-08T22:39:45.560Z,3.17
2022-08-08T22:47:36.538Z,2.75
2022-08-08T22:55:14.316Z,3.25
2022-08-08T23:02:51.247Z,2.50
2022-08-08T23:10:27.645Z,3.08
2022-08-08T23:18:01.490Z,2.92
2022-08-08T23:25:48.290Z,2.78
2022-08-08T23:34:15.976Z,2.60
2022-08-08T23:41:24.570Z,2.65
2022-08-08T23:49:18.102Z,3.45
2022-08-08T23:56:54.249Z,2.47
